首页
METAR-TAF:

METAR-TAF

机场 :

雅库茨克, 俄罗斯

纬度: 62-01N, 经度: 129-43E, 海拔: 103米

当前天气观测

该预报发布于27分钟前的19:30 UTC
风速2节,风向东北
温度 7°C
湿度 93%
气压 996 hPa
能見度: 5000
散云层高于400英尺
阴天层高于2000英尺, 积雨云.
小阵雨

METAR: UEEE 231930Z 05001MPS 5000 -SHRA SCT004 OVC020CB 07/06 Q0996 R23L/19//60 NOSIG RMK QBB120 QFE739

时间: 04:57 (19:57 UTC)

预报

该预报发布于2小时和57分钟前的17:00 UTC
预报有效从23日的 18点(UTC)到 24日的 24点(UTC)
风速6节,风向北转东北
能见度10公里或以上
散云层高于700英尺
多云层高于1500英尺, 积雨云.
阴天层高于7000英尺
短暂存在
从 23日的 18点(UTC)到 24日的 03点(UTC)
能見度: 0300
层高于300英尺
阵雨, 雾

TAF: UEEE 231700Z 2318/2424 02003MPS 9999 SCT007 BKN015CB OVC070 TEMPO 2318/2403 0300 SHRA FG VV003

超过4000个机场的气象观测和天气预报(METAR&TAF报告)。

可查询的气象台以黄色和红色小点在地图上表示。

将鼠标移到小点上方,可查看气象台名称。

然后点击查看天气观测和预报。

如需切换地图:点击带黑十字的绿色按钮放大地图;点击带横线的绿色按钮缩小地图;或者点击绿色箭头查看邻近地区的地图。


METAR-TAF: